»·PEaware :: N360BG KSBP-KSTS

N360BG :: KSBP-KSTS

FLIGHT INFORMATION

Flight Status: Arrived
Operator: Privately registered:
United States
More flights under this callsign
Pilot: Brandon G. (13)
Aircraft: PILATUS PC-12 EAGLE
(PC12)
More flights by this aircraft type
Origin: KSBP San Luis Co Regl
United States
Destination: KSTS Sonoma Co
United States
More flights between these airports :: More routes between these airports
Route: PRB OAK SAU
File this flight plan on PilotEdge
Remarks:
Altitude:
(Current/Filed)
20,000ft
Speed:
(Current/Filed)
300kts
Departed: 09-Sep-18 06:35 PM
Arrived: 09-Sep-18 07:37 PM
Distance/Time
Traveled:
222nm/1:02
Distance/Time
To Go:
Arrived

Flight Plot

Page will automatically refresh every two minutes.

Flight plan parsing failed; only flown route is shown


Map Options




Map Legend


Flown Route
Filed Route
Departure Airport
Arrival Airport
Navaid (VOR, NDB)
Fix

Horizontal Profiles

Position Reports

Time Latitude Longitude Heading Altitude Ground
Speed
09-Sep-18 18:05 35.238386 -120.640103 304 190ft 0kts
09-Sep-18 18:06 35.238386 -120.640103 304 190ft 0kts
09-Sep-18 18:07 35.238386 -120.640103 304 190ft 0kts
09-Sep-18 18:08 35.238386 -120.640103 304 190ft 0kts
09-Sep-18 18:09 35.238386 -120.640103 304 190ft 0kts
09-Sep-18 18:10 35.238386 -120.640103 304 190ft 0kts
09-Sep-18 18:11 35.238386 -120.640103 304 190ft 0kts
09-Sep-18 18:12 35.238386 -120.640103 304 190ft 0kts
09-Sep-18 18:13 35.238386 -120.640103 304 190ft 0kts
09-Sep-18 18:14 35.238386 -120.640103 304 190ft 0kts
09-Sep-18 18:15 35.238386 -120.640103 304 190ft 0kts
09-Sep-18 18:16 35.238386 -120.640103 304 190ft 0kts
09-Sep-18 18:17 35.238386 -120.640103 304 190ft 0kts
09-Sep-18 18:18 35.238386 -120.640103 304 190ft 0kts
09-Sep-18 18:19 35.238386 -120.640103 304 190ft 0kts
09-Sep-18 18:20 35.238386 -120.640103 304 190ft 0kts
09-Sep-18 18:21 35.238386 -120.640103 304 190ft 0kts
09-Sep-18 18:22 35.238386 -120.640103 304 190ft 0kts
09-Sep-18 18:23 35.238386 -120.640103 304 190ft 0kts
09-Sep-18 18:24 35.238386 -120.640103 304 190ft 0kts
09-Sep-18 18:25 35.238386 -120.640103 304 190ft 0kts
09-Sep-18 18:26 35.238386 -120.640103 304 190ft 0kts
09-Sep-18 18:27 35.238386 -120.640103 304 190ft 0kts
09-Sep-18 18:28 35.238386 -120.640103 304 190ft 0kts
09-Sep-18 18:29 35.238386 -120.640103 304 190ft 0kts
09-Sep-18 18:30 35.238386 -120.640103 304 190ft 0kts
09-Sep-18 18:31 35.238386 -120.640103 304 190ft 0kts
09-Sep-18 18:32 35.238386 -120.640103 304 190ft 0kts
09-Sep-18 18:33 35.238386 -120.640103 304 190ft 0kts
09-Sep-18 18:34 35.237227 -120.638907 124 195ft 13kts
09-Sep-18 18:35 35.234591 -120.634260 127 211ft 19kts
09-Sep-18 18:36 35.233150 -120.632459 212 212ft 0kts
09-Sep-18 18:37 35.235376 -120.637587 304 200ft 78kts
09-Sep-18 18:38 35.249845 -120.663995 302 1056ft 97kts
09-Sep-18 18:39 35.266369 -120.694811 301 2881ft 118kts
09-Sep-18 18:40 35.286165 -120.731919 302 4905ft 141kts
09-Sep-18 18:41 35.310026 -120.771728 338 6881ft 165kts
09-Sep-18 18:42 35.360455 -120.760182 15 7999ft 217kts
09-Sep-18 18:43 35.419500 -120.734805 16 9112ft 223kts
09-Sep-18 18:44 35.477802 -120.710249 16 10443ft 224kts
09-Sep-18 18:45 35.537125 -120.685143 16 11648ft 227kts
09-Sep-18 18:46 35.592639 -120.661638 16 12764ft 227kts
09-Sep-18 18:47 35.651755 -120.636515 15 13962ft 224kts
09-Sep-18 18:48 35.707161 -120.653997 326 15184ft 214kts
09-Sep-18 18:49 35.757662 -120.692300 325 16354ft 214kts
09-Sep-18 18:50 35.808822 -120.731398 326 17355ft 219kts
09-Sep-18 18:51 35.860417 -120.770468 326 18346ft 220kts
09-Sep-18 18:52 35.912161 -120.809647 325 19335ft 220kts
09-Sep-18 18:53 35.955879 -120.842812 326 19887ft 227kts
09-Sep-18 18:54 36.020989 -120.892150 325 19890ft 244kts
09-Sep-18 18:55 36.079596 -120.936777 326 19889ft 250kts
09-Sep-18 18:56 36.130877 -120.975840 326 19893ft 252kts
09-Sep-18 18:57 36.180129 -121.013441 326 19905ft 252kts
09-Sep-18 18:58 36.238684 -121.058295 326 19918ft 251kts
09-Sep-18 18:59 36.307565 -121.111081 325 19934ft 250kts
09-Sep-18 19:00 36.356688 -121.148836 325 19946ft 249kts
09-Sep-18 19:01 36.415171 -121.193867 325 19959ft 248kts
09-Sep-18 19:02 36.473536 -121.238867 325 19962ft 247kts
09-Sep-18 19:03 36.531943 -121.284004 325 19955ft 248kts
09-Sep-18 19:04 36.590261 -121.329117 325 19950ft 248kts
09-Sep-18 19:05 36.648509 -121.374313 325 19950ft 247kts
09-Sep-18 19:06 36.706566 -121.419377 326 19947ft 248kts
09-Sep-18 19:07 36.764998 -121.464847 326 19948ft 248kts
09-Sep-18 19:08 36.823312 -121.510243 326 19947ft 248kts
09-Sep-18 19:09 36.881393 -121.555574 326 19950ft 248kts
09-Sep-18 19:10 36.939848 -121.601323 326 19953ft 248kts
09-Sep-18 19:11 36.998106 -121.646975 326 19956ft 247kts
09-Sep-18 19:12 37.056190 -121.692511 325 19962ft 247kts
09-Sep-18 19:13 37.112020 -121.736591 324 19964ft 246kts
09-Sep-18 19:14 37.169869 -121.782178 324 19959ft 247kts
09-Sep-18 19:15 37.226536 -121.826888 324 19954ft 247kts
09-Sep-18 19:16 37.283911 -121.872147 324 19951ft 247kts
09-Sep-18 19:17 37.341862 -121.918057 324 19954ft 247kts
09-Sep-18 19:18 37.399030 -121.963631 324 19954ft 248kts
09-Sep-18 19:19 37.457017 -122.009715 324 19953ft 247kts
09-Sep-18 19:20 37.513902 -122.055062 324 19948ft 247kts
09-Sep-18 19:21 37.571990 -122.101438 325 19728ft 255kts
09-Sep-18 19:22 37.634119 -122.150277 325 18544ft 273kts
09-Sep-18 19:23 37.698673 -122.201809 325 17342ft 277kts
09-Sep-18 19:24 37.747063 -122.272288 298 16149ft 271kts
09-Sep-18 19:25 37.783168 -122.355285 298 14948ft 272kts
09-Sep-18 19:26 37.818972 -122.438191 298 13751ft 272kts
09-Sep-18 19:27 37.858812 -122.517978 320 12600ft 272kts
09-Sep-18 19:28 37.928429 -122.554705 339 11496ft 274kts
09-Sep-18 19:29 38.000154 -122.586187 339 10389ft 273kts
09-Sep-18 19:30 38.070792 -122.617405 339 9289ft 267kts
09-Sep-18 19:31 38.137580 -122.647041 339 8221ft 263kts
09-Sep-18 19:32 38.206317 -122.677606 339 7121ft 262kts
09-Sep-18 19:33 38.274717 -122.707918 339 6026ft 262kts
09-Sep-18 19:34 38.345378 -122.722984 343 4851ft 256kts
09-Sep-18 19:35 38.403711 -122.753320 337 3327ft 208kts
09-Sep-18 19:36 38.452409 -122.779655 336 2103ft 151kts
09-Sep-18 19:37 38.484283 -122.796419 337 590ft 99kts
09-Sep-18 19:38 38.506310 -122.807806 338 119ft 58kts
09-Sep-18 19:39 38.510989 -122.807515 97 113ft 11kts
09-Sep-18 19:40 38.510786 -122.806645 107 114ft 0kts
09-Sep-18 19:41 38.510786 -122.806645 107 114ft 0kts
09-Sep-18 19:42 38.510786 -122.806645 107 114ft 0kts
09-Sep-18 19:43 38.510786 -122.806645 107 114ft 0kts
09-Sep-18 19:44 38.510786 -122.806645 107 114ft 0kts
09-Sep-18 19:45 38.510786 -122.806645 107 114ft 0kts
09-Sep-18 19:46 38.510786 -122.806645 107 114ft 0kts
09-Sep-18 19:47 38.510786 -122.806645 107 114ft 0kts
09-Sep-18 19:48 38.510786 -122.806645 107 114ft 0kts
09-Sep-18 19:49 38.510786 -122.806645 107 114ft 0kts
09-Sep-18 19:50 38.510786 -122.806645 107 114ft 0kts
09-Sep-18 19:51 38.510776 -122.806620 123 114ft 2kts
09-Sep-18 19:52 38.506975 -122.806197 177 119ft 21kts
09-Sep-18 19:53 38.502746 -122.804764 248 119ft 0kts
09-Sep-18 19:54 38.503576 -122.806327 340 119ft 0kts

Navigation Log

Ident Type
Flight plan parsing failed, navigation log unavailable